Terminal Aerodrome Forecast
Issued by NWS Wakefield, VA

Home | Current Version | Previous Version | Text Only | Print | Product List | Glossary On
Versions: 1 2 3 4 5 6 7 8 9 10 11 12 13 14 15 16 17 18 19
000
FTUS41 KAKQ 232300
TAFECG
TAF
KECG 232329Z 2400/2424 02011KT P6SM BKN120
     FM240600 04012KT 6SM -RA BR SCT020 BKN070
     FM241000 05015G22KT 5SM -RA BR BKN015 OVC030
     FM241400 06016G23KT 3SM -RA BR OVC010=

USA.gov is the U.S. government's official web portal to all federal, state and local government web resources and services.